createdAt,value
2024-03-15T00:01:03.680Z,12.70
2024-03-15T00:03:06.690Z,12.80
2024-03-15T00:05:11.079Z,12.70
2024-03-15T00:07:14.637Z,12.70
2024-03-15T00:09:17.706Z,12.60
2024-03-15T00:11:20.713Z,12.60
2024-03-15T00:13:23.930Z,12.50
2024-03-15T00:15:27.129Z,12.60
2024-03-15T00:17:30.218Z,12.60
2024-03-15T00:19:32.323Z,12.60
2024-03-15T00:21:38.277Z,12.60
2024-03-15T00:23:41.354Z,12.50
2024-03-15T00:25:44.345Z,12.40
2024-03-15T00:27:47.690Z,12.40
2024-03-15T00:29:51.158Z,12.40
2024-03-15T00:31:53.263Z,12.40
2024-03-15T00:33:56.267Z,12.40
2024-03-15T00:35:59.311Z,12.40
2024-03-15T00:38:01.375Z,12.40
2024-03-15T00:40:04.929Z,12.40
2024-03-15T00:42:08.349Z,12.40
2024-03-15T00:44:11.385Z,12.40
2024-03-15T00:46:14.464Z,12.40
2024-03-15T00:48:17.623Z,12.40
2024-03-15T00:50:20.670Z,12.40
2024-03-15T00:52:24.295Z,12.40
2024-03-15T00:54:28.678Z,12.40
2024-03-15T00:56:31.782Z,12.30
2024-03-15T00:58:35.103Z,12.30
2024-03-15T01:00:38.178Z,12.30
2024-03-15T01:02:41.419Z,12.30
2024-03-15T01:04:43.439Z,12.30
2024-03-15T01:06:46.488Z,12.30
2024-03-15T01:08:52.650Z,12.30
2024-03-15T01:10:55.870Z,12.30
2024-03-15T01:12:59.518Z,12.30
2024-03-15T01:15:02.715Z,12.30
2024-03-15T01:17:05.821Z,12.30
2024-03-15T01:19:09.495Z,12.30
2024-03-15T01:21:12.644Z,12.20
2024-03-15T01:23:15.669Z,12.30
2024-03-15T01:25:17.735Z,12.30
2024-03-15T01:27:21.003Z,12.30
2024-03-15T01:29:24.182Z,12.30
2024-03-15T01:31:27.218Z,12.20
2024-03-15T01:33:30.300Z,12.30
2024-03-15T01:35:34.292Z,12.30
2024-03-15T01:37:40.063Z,12.20
2024-03-15T01:39:43.097Z,12.20
2024-03-15T01:41:46.105Z,12.30
2024-03-15T01:43:49.623Z,12.30
2024-03-15T01:45:52.921Z,12.30
2024-03-15T01:47:55.101Z,12.30
2024-03-15T01:49:58.502Z,12.30
2024-03-15T01:52:01.552Z,12.40
2024-03-15T01:54:04.730Z,12.30
2024-03-15T01:56:07.872Z,12.30
2024-03-15T01:58:10.875Z,12.30
2024-03-15T02:00:15.043Z,12.30
2024-03-15T02:02:18.154Z,12.30
2024-03-15T02:04:21.219Z,12.30
2024-03-15T02:06:24.215Z,12.20
2024-03-15T02:08:27.225Z,12.20
2024-03-15T02:10:30.302Z,12.20
2024-03-15T02:12:34.328Z,12.20
2024-03-15T02:14:36.450Z,12.20
2024-03-15T02:16:39.555Z,12.20
2024-03-15T02:18:44.453Z,12.30
2024-03-15T02:20:47.554Z,12.20
2024-03-15T02:22:49.552Z,12.20
2024-03-15T02:24:52.618Z,12.30
2024-03-15T02:26:55.576Z,12.20
2024-03-15T02:28:58.647Z,12.20
2024-03-15T02:31:01.740Z,12.30
2024-03-15T02:33:05.077Z,12.20
2024-03-15T02:35:19.574Z,12.10
2024-03-15T02:37:28.008Z,12.10
2024-03-15T02:39:31.078Z,12.20
2024-03-15T02:41:33.151Z,12.20
2024-03-15T02:43:36.098Z,12.20
2024-03-15T02:45:39.170Z,12.20
2024-03-15T02:47:42.892Z,12.20
2024-03-15T02:49:46.020Z,12.10
2024-03-15T02:51:49.172Z,12.10
2024-03-15T02:53:51.300Z,12.00
2024-03-15T02:55:54.541Z,12.10
2024-03-15T02:57:57.858Z,12.10
2024-03-15T02:59:59.954Z,12.00
2024-03-15T03:02:03.864Z,11.90
2024-03-15T03:04:07.343Z,11.90
2024-03-15T03:06:11.609Z,11.90
2024-03-15T03:08:13.656Z,11.90
2024-03-15T03:10:16.636Z,11.90
2024-03-15T03:12:19.674Z,11.90
2024-03-15T03:14:22.654Z,11.90
2024-03-15T03:16:24.662Z,11.90
2024-03-15T03:18:27.710Z,11.90
2024-03-15T03:20:34.042Z,11.90
2024-03-15T03:22:37.032Z,11.90
2024-03-15T03:24:40.017Z,11.90
2024-03-15T03:26:42.068Z,12.00
2024-03-15T03:28:45.024Z,12.00
2024-03-15T03:30:48.106Z,12.10
2024-03-15T03:32:51.250Z,12.20
2024-03-15T03:34:54.249Z,12.30
2024-03-15T03:36:57.715Z,12.30
2024-03-15T03:38:59.777Z,12.40
2024-03-15T03:41:02.786Z,12.50
2024-03-15T03:43:04.869Z,12.60
2024-03-15T03:45:17.248Z,12.60
2024-03-15T03:47:20.450Z,12.60
2024-03-15T03:49:23.424Z,12.70
2024-03-15T03:51:26.517Z,12.70
2024-03-15T03:53:31.212Z,12.70
2024-03-15T03:55:34.457Z,12.80
2024-03-15T03:57:44.567Z,12.80
2024-03-15T03:59:48.126Z,12.90
2024-03-15T04:01:51.473Z,12.90
2024-03-15T04:03:54.614Z,12.90
2024-03-15T04:05:59.596Z,13.00
2024-03-15T04:08:03.843Z,13.00
2024-03-15T04:10:06.114Z,13.10
2024-03-15T04:12:09.361Z,13.10
2024-03-15T04:14:12.129Z,13.10
2024-03-15T04:16:16.281Z,13.10
2024-03-15T04:18:19.433Z,13.20
2024-03-15T04:20:23.653Z,13.20
2024-03-15T04:22:27.626Z,13.20
2024-03-15T04:24:32.035Z,13.30
2024-03-15T04:26:35.024Z,13.20
2024-03-15T04:28:38.998Z,13.30
2024-03-15T04:30:42.529Z,13.30
2024-03-15T04:32:47.546Z,13.30
2024-03-15T04:34:51.586Z,13.30
2024-03-15T04:36:54.869Z,13.40
2024-03-15T04:39:00.328Z,13.30
2024-03-15T04:41:11.039Z,13.30
2024-03-15T04:43:14.375Z,13.30
2024-03-15T04:45:18.718Z,13.40
2024-03-15T04:47:22.070Z,13.30
2024-03-15T04:49:25.093Z,13.40
2024-03-15T04:51:28.230Z,13.40
2024-03-15T04:53:31.244Z,13.40
2024-03-15T04:55:34.737Z,13.30
2024-03-15T04:57:39.926Z,13.40
2024-03-15T04:59:43.560Z,13.30
2024-03-15T05:01:46.698Z,13.40
2024-03-15T05:03:49.937Z,13.40
2024-03-15T05:05:52.970Z,13.40
2024-03-15T05:07:56.595Z,13.40
2024-03-15T05:09:59.106Z,13.40
2024-03-15T05:12:02.608Z,13.40
2024-03-15T05:14:04.630Z,13.50
2024-03-15T05:16:11.813Z,13.40
2024-03-15T05:18:15.114Z,13.40
2024-03-15T05:20:19.559Z,13.30
2024-03-15T05:22:25.697Z,13.30
2024-03-15T05:24:28.840Z,13.40
2024-03-15T05:26:33.708Z,13.40
2024-03-15T05:28:36.719Z,13.30
2024-03-15T05:30:39.867Z,13.30
2024-03-15T05:32:41.982Z,13.30
2024-03-15T05:34:45.034Z,13.20
2024-03-15T05:36:48.180Z,13.30
2024-03-15T05:38:51.240Z,13.30
2024-03-15T05:40:53.409Z,13.30
2024-03-15T05:42:56.630Z,13.30
2024-03-15T05:44:58.897Z,13.20
2024-03-15T05:47:01.995Z,13.20
2024-03-15T05:49:05.282Z,13.20
2024-03-15T05:51:08.817Z,13.10
2024-03-15T05:53:12.954Z,13.00
2024-03-15T05:55:15.984Z,13.00
2024-03-15T05:57:19.117Z,12.90
2024-03-15T05:59:22.149Z,13.00
2024-03-15T06:01:25.232Z,13.00
2024-03-15T06:03:28.541Z,13.00
2024-03-15T06:05:31.547Z,12.90
2024-03-15T06:07:34.657Z,13.00
2024-03-15T06:09:39.942Z,13.00
2024-03-15T06:11:43.170Z,12.90
2024-03-15T06:13:46.232Z,13.00
2024-03-15T06:15:50.046Z,12.90
2024-03-15T06:17:53.157Z,12.90
2024-03-15T06:19:57.244Z,12.80
2024-03-15T06:22:00.349Z,12.70
2024-03-15T06:24:03.559Z,12.70
2024-03-15T06:26:07.286Z,12.70
2024-03-15T06:28:12.268Z,12.70
2024-03-15T06:30:15.690Z,12.70
2024-03-15T06:32:18.963Z,12.70
2024-03-15T06:34:24.738Z,12.70
2024-03-15T06:36:33.231Z,12.60
2024-03-15T06:38:52.502Z,12.60
2024-03-15T06:41:10.979Z,12.60
2024-03-15T06:43:26.788Z,12.60
2024-03-15T06:45:45.814Z,12.60
2024-03-15T06:47:53.589Z,12.70
2024-03-15T06:50:07.750Z,12.80
2024-03-15T06:52:28.505Z,12.80
2024-03-15T06:54:32.288Z,12.70
2024-03-15T06:56:35.372Z,12.80
2024-03-15T06:58:38.444Z,12.70
2024-03-15T07:00:42.229Z,12.80
2024-03-15T07:02:46.117Z,12.90
2024-03-15T07:04:50.399Z,12.90
2024-03-15T07:06:54.257Z,12.90
2024-03-15T07:08:58.389Z,13.00
2024-03-15T07:11:00.483Z,13.00
2024-03-15T07:13:04.227Z,13.10
2024-03-15T07:15:07.460Z,13.20
2024-03-15T07:17:10.768Z,13.30
2024-03-15T07:19:14.763Z,13.40
2024-03-15T07:21:18.832Z,13.50
2024-03-15T07:23:23.269Z,13.60
2024-03-15T07:25:26.433Z,13.70
2024-03-15T07:27:30.066Z,13.80
2024-03-15T07:29:33.486Z,13.90
2024-03-15T07:31:36.424Z,14.00
2024-03-15T07:33:39.922Z,14.10
2024-03-15T07:35:43.098Z,14.20
2024-03-15T07:37:48.136Z,14.30
2024-03-15T07:39:54.621Z,14.30
2024-03-15T07:42:00.719Z,14.50
2024-03-15T07:44:06.419Z,14.50
2024-03-15T07:46:10.607Z,14.60
2024-03-15T07:48:13.837Z,14.70
2024-03-15T07:50:17.020Z,14.80
2024-03-15T07:52:20.467Z,14.80
2024-03-15T07:54:24.202Z,14.90
2024-03-15T07:56:26.361Z,15.00
2024-03-15T07:58:30.754Z,15.10
2024-03-15T08:00:33.947Z,15.10
2024-03-15T08:02:36.980Z,15.10
2024-03-15T08:04:40.366Z,15.20
2024-03-15T08:06:43.509Z,15.20
2024-03-15T08:08:46.733Z,15.30
2024-03-15T08:10:49.935Z,15.30
2024-03-15T08:12:53.153Z,15.40
2024-03-15T08:14:55.626Z,15.40
2024-03-15T08:16:58.609Z,15.50
2024-03-15T08:19:02.070Z,15.50
2024-03-15T08:21:08.478Z,15.60
2024-03-15T08:23:12.397Z,15.60
2024-03-15T08:25:17.321Z,15.70
2024-03-15T08:27:20.500Z,15.70
2024-03-15T08:29:23.563Z,15.80
2024-03-15T08:31:26.756Z,15.80
2024-03-15T08:33:29.841Z,15.90
2024-03-15T08:35:32.928Z,16.00
2024-03-15T08:37:35.934Z,16.00
2024-03-15T08:39:38.972Z,16.10
2024-03-15T08:41:43.981Z,16.10
2024-03-15T08:43:47.921Z,16.20
2024-03-15T08:45:51.715Z,16.20
2024-03-15T08:47:59.614Z,16.20
2024-03-15T08:50:05.154Z,16.30
2024-03-15T08:52:08.747Z,16.40
2024-03-15T08:54:12.841Z,16.50
2024-03-15T08:56:18.424Z,16.50
2024-03-15T08:58:20.594Z,16.50
2024-03-15T09:00:24.863Z,16.50
2024-03-15T09:02:28.006Z,16.50
2024-03-15T09:04:31.176Z,16.60
2024-03-15T09:06:35.481Z,16.60
2024-03-15T09:08:40.124Z,16.70
2024-03-15T09:10:43.866Z,16.70
2024-03-15T09:12:46.275Z,16.70
2024-03-15T09:14:49.676Z,16.80
2024-03-15T09:16:53.058Z,16.80
2024-03-15T09:18:57.034Z,16.80
2024-03-15T09:21:00.129Z,16.90
2024-03-15T09:23:03.694Z,16.90
2024-03-15T09:25:08.007Z,16.90
2024-03-15T09:27:11.077Z,16.90
2024-03-15T09:29:14.082Z,16.90
2024-03-15T09:31:30.288Z,17.00
2024-03-15T09:33:40.473Z,17.00
2024-03-15T09:35:46.145Z,17.00
2024-03-15T09:37:51.763Z,17.10
2024-03-15T09:39:54.881Z,17.20
2024-03-15T09:41:57.854Z,17.30
2024-03-15T09:44:01.047Z,17.40
2024-03-15T09:46:05.399Z,17.50
2024-03-15T09:48:09.609Z,17.60
2024-03-15T09:50:13.348Z,17.60
2024-03-15T09:52:16.540Z,17.70
2024-03-15T09:54:19.852Z,17.70
2024-03-15T09:56:23.309Z,17.70
2024-03-15T09:58:26.404Z,17.70
2024-03-15T10:00:31.445Z,17.70
2024-03-15T10:02:34.745Z,17.70
2024-03-15T10:04:37.818Z,17.70
2024-03-15T10:06:40.874Z,17.80
2024-03-15T10:08:44.186Z,17.80
2024-03-15T10:10:48.289Z,17.90
2024-03-15T10:12:53.879Z,18.00
2024-03-15T10:14:59.181Z,18.00
2024-03-15T10:17:02.118Z,18.10
2024-03-15T10:19:05.311Z,18.10
2024-03-15T10:21:08.657Z,18.20
2024-03-15T10:23:12.459Z,18.20
2024-03-15T10:25:16.713Z,18.20
2024-03-15T10:27:21.296Z,18.30
2024-03-15T10:29:24.585Z,18.30
2024-03-15T10:31:28.126Z,18.30
2024-03-15T10:33:31.542Z,18.40
2024-03-15T10:35:35.758Z,18.30
2024-03-15T10:37:39.480Z,18.40
2024-03-15T10:39:42.753Z,18.40
2024-03-15T10:41:47.904Z,18.30
2024-03-15T10:43:53.620Z,18.30
2024-03-15T10:45:56.625Z,18.30
2024-03-15T10:47:59.861Z,18.30
2024-03-15T10:50:03.186Z,18.30
2024-03-15T10:52:06.305Z,18.30
2024-03-15T10:54:10.561Z,18.20
2024-03-15T10:56:14.222Z,18.30
2024-03-15T10:58:17.458Z,18.30
2024-03-15T11:00:20.666Z,18.40
2024-03-15T11:02:24.224Z,18.40
2024-03-15T11:04:26.447Z,18.50
2024-03-15T11:06:43.768Z,18.50
2024-03-15T11:08:46.859Z,18.60
2024-03-15T11:10:56.363Z,18.70
2024-03-15T11:13:00.573Z,18.70
2024-03-15T11:15:09.382Z,18.70
2024-03-15T11:17:20.794Z,18.70
2024-03-15T11:19:25.389Z,18.80
2024-03-15T11:21:28.437Z,18.80
2024-03-15T11:23:32.943Z,18.80
2024-03-15T11:25:35.221Z,18.90
2024-03-15T11:27:56.524Z,19.00
2024-03-15T11:29:59.733Z,19.00
2024-03-15T11:32:01.782Z,19.00
2024-03-15T11:34:04.807Z,19.00
2024-03-15T11:36:11.923Z,19.00
2024-03-15T11:38:15.004Z,19.00
2024-03-15T11:40:18.108Z,19.00
2024-03-15T11:42:21.511Z,19.00
2024-03-15T11:44:24.583Z,19.00
2024-03-15T11:46:28.567Z,19.00
2024-03-15T11:48:31.629Z,19.00
2024-03-15T11:50:33.634Z,19.10
2024-03-15T11:52:36.977Z,19.10
2024-03-15T11:54:40.166Z,19.00
2024-03-15T11:56:42.632Z,19.10
2024-03-15T11:58:46.032Z,19.10
2024-03-15T12:00:49.344Z,19.20
2024-03-15T12:02:54.125Z,19.10
2024-03-15T12:04:57.216Z,19.20
2024-03-15T12:07:00.517Z,19.20
2024-03-15T12:09:04.979Z,19.20
2024-03-15T12:11:08.088Z,19.20
2024-03-15T12:13:17.583Z,19.30
2024-03-15T12:15:30.334Z,19.30
2024-03-15T12:17:35.487Z,19.30
2024-03-15T12:19:40.447Z,19.30
2024-03-15T12:21:43.497Z,19.30
2024-03-15T12:23:46.992Z,19.30
2024-03-15T12:25:50.080Z,19.30
2024-03-15T12:27:53.081Z,19.20
2024-03-15T12:29:56.067Z,19.20
2024-03-15T12:31:59.254Z,19.20
2024-03-15T12:34:02.411Z,19.20
2024-03-15T12:36:06.353Z,19.30
2024-03-15T12:38:10.165Z,19.30
2024-03-15T12:40:18.140Z,19.30
2024-03-15T12:42:21.268Z,19.30
2024-03-15T12:44:24.334Z,19.30
2024-03-15T12:46:27.304Z,19.30
2024-03-15T12:48:29.425Z,19.30
2024-03-15T12:50:32.905Z,19.30
2024-03-15T12:52:36.003Z,19.30
2024-03-15T12:54:39.110Z,19.30
2024-03-15T12:56:42.124Z,19.40
2024-03-15T12:58:44.206Z,19.30
2024-03-15T13:00:49.334Z,19.30
2024-03-15T13:02:55.145Z,19.30
2024-03-15T13:04:59.761Z,19.40
2024-03-15T13:07:02.867Z,19.40
2024-03-15T13:09:05.871Z,19.40
2024-03-15T13:11:10.266Z,19.40
2024-03-15T13:13:12.348Z,19.30
2024-03-15T13:15:16.070Z,19.30
2024-03-15T13:17:19.135Z,19.30
2024-03-15T13:19:22.222Z,19.30
2024-03-15T13:21:25.345Z,19.40
2024-03-15T13:23:28.363Z,19.40
2024-03-15T13:25:36.529Z,19.40
2024-03-15T13:27:41.164Z,19.50
2024-03-15T13:29:44.298Z,19.50
2024-03-15T13:31:47.415Z,19.50
2024-03-15T13:33:50.553Z,19.60
2024-03-15T13:35:53.714Z,19.60
2024-03-15T13:37:55.870Z,19.60
2024-03-15T13:39:58.967Z,19.60
2024-03-15T13:42:02.682Z,19.50
2024-03-15T13:44:05.815Z,19.40
2024-03-15T13:46:10.499Z,19.40
2024-03-15T13:48:14.205Z,19.40
2024-03-15T13:50:17.390Z,19.40
2024-03-15T13:52:21.428Z,19.40
2024-03-15T13:54:26.888Z,19.50
2024-03-15T13:56:30.216Z,19.50
2024-03-15T13:58:33.804Z,19.50
2024-03-15T14:00:39.645Z,19.60
2024-03-15T14:02:42.959Z,19.60
2024-03-15T14:04:47.300Z,19.60
2024-03-15T14:06:51.605Z,19.60
2024-03-15T14:08:56.959Z,19.70
2024-03-15T14:11:03.767Z,19.60
2024-03-15T14:13:07.119Z,19.70
2024-03-15T14:15:12.423Z,19.60
2024-03-15T14:17:16.304Z,19.50
2024-03-15T14:19:20.433Z,19.50
2024-03-15T14:21:23.937Z,19.50
2024-03-15T14:23:28.240Z,19.40
2024-03-15T14:25:34.148Z,19.40
2024-03-15T14:27:36.925Z,19.40
2024-03-15T14:29:40.931Z,19.40
2024-03-15T14:31:49.644Z,19.40
2024-03-15T14:33:53.309Z,19.50
2024-03-15T14:35:58.363Z,19.50
2024-03-15T14:38:04.802Z,19.40
2024-03-15T14:40:10.455Z,19.40
2024-03-15T14:42:15.390Z,19.40
2024-03-15T14:44:18.416Z,19.50
2024-03-15T14:46:21.532Z,19.50
2024-03-15T14:48:24.618Z,19.50
2024-03-15T14:50:29.179Z,19.60
2024-03-15T14:52:32.196Z,19.60
2024-03-15T14:54:35.491Z,19.60
2024-03-15T14:56:38.527Z,19.60
2024-03-15T14:58:43.310Z,19.60
2024-03-15T15:00:49.702Z,19.60
2024-03-15T15:02:53.610Z,19.60
2024-03-15T15:04:57.620Z,19.60
2024-03-15T15:07:00.933Z,19.60
2024-03-15T15:09:04.400Z,19.60
2024-03-15T15:11:07.545Z,19.60
2024-03-15T15:13:12.059Z,19.60
2024-03-15T15:15:18.129Z,19.60
2024-03-15T15:17:24.328Z,19.60
2024-03-15T15:19:29.358Z,19.60
2024-03-15T15:21:32.513Z,19.60
2024-03-15T15:23:35.503Z,19.70
2024-03-15T15:25:38.665Z,19.70
2024-03-15T15:27:41.720Z,19.70
2024-03-15T15:29:45.253Z,19.60
2024-03-15T15:31:48.392Z,19.60
2024-03-15T15:33:51.356Z,19.60
2024-03-15T15:35:54.387Z,19.50
2024-03-15T15:37:56.823Z,19.50
2024-03-15T15:40:00.176Z,19.50
2024-03-15T15:42:03.829Z,19.40
2024-03-15T15:44:05.935Z,19.30
2024-03-15T15:46:11.350Z,19.30
2024-03-15T15:48:13.479Z,19.30
2024-03-15T15:50:19.450Z,19.30
2024-03-15T15:52:25.671Z,19.30
2024-03-15T15:54:29.144Z,19.20
2024-03-15T15:56:32.731Z,19.20
2024-03-15T15:58:37.085Z,19.20
2024-03-15T16:00:39.762Z,19.20
2024-03-15T16:02:42.849Z,19.20
2024-03-15T16:04:45.839Z,19.20
2024-03-15T16:06:55.155Z,19.20
2024-03-15T16:08:58.775Z,19.20
2024-03-15T16:11:01.830Z,19.10
2024-03-15T16:13:05.036Z,19.10
2024-03-15T16:15:08.593Z,19.10
2024-03-15T16:17:13.736Z,19.00
2024-03-15T16:19:16.764Z,19.00
2024-03-15T16:21:19.979Z,19.00
2024-03-15T16:23:22.575Z,19.00
2024-03-15T16:25:25.675Z,18.90
2024-03-15T16:27:28.819Z,18.90
2024-03-15T16:29:31.953Z,18.80
2024-03-15T16:31:38.581Z,18.80
2024-03-15T16:33:41.678Z,18.70
2024-03-15T16:35:44.763Z,18.70
2024-03-15T16:37:46.791Z,18.70
2024-03-15T16:39:49.816Z,18.70
2024-03-15T16:41:52.852Z,18.70
2024-03-15T16:43:54.867Z,18.70
2024-03-15T16:45:58.677Z,18.60
2024-03-15T16:48:00.881Z,18.60
2024-03-15T16:50:06.368Z,18.60
2024-03-15T16:52:18.069Z,18.70
2024-03-15T16:54:20.809Z,18.70
2024-03-15T16:56:23.911Z,18.70
2024-03-15T16:58:27.338Z,18.70
2024-03-15T17:00:32.086Z,18.70
2024-03-15T17:02:38.539Z,18.60
2024-03-15T17:04:41.476Z,18.60
2024-03-15T17:06:44.470Z,18.60
2024-03-15T17:08:47.498Z,18.60
2024-03-15T17:10:50.562Z,18.50
2024-03-15T17:12:53.699Z,18.50
2024-03-15T17:14:55.754Z,18.50
2024-03-15T17:16:58.719Z,18.50
2024-03-15T17:19:02.290Z,18.50
2024-03-15T17:21:07.040Z,18.40
2024-03-15T17:23:10.051Z,18.40
2024-03-15T17:25:13.204Z,18.40
2024-03-15T17:27:16.170Z,18.40
2024-03-15T17:29:19.172Z,18.40
2024-03-15T17:31:22.209Z,18.30
2024-03-15T17:33:24.556Z,18.40
2024-03-15T17:35:28.485Z,18.40
2024-03-15T17:37:32.787Z,18.40
2024-03-15T17:39:35.853Z,18.30
2024-03-15T17:41:38.888Z,18.30
2024-03-15T17:43:41.909Z,18.30
2024-03-15T17:45:45.245Z,18.30
2024-03-15T17:47:48.273Z,18.30
2024-03-15T17:49:53.733Z,18.30
2024-03-15T17:51:56.749Z,18.30
2024-03-15T17:53:59.987Z,18.20
2024-03-15T17:56:03.788Z,18.20
2024-03-15T17:58:07.107Z,18.20
2024-03-15T18:00:14.439Z,18.20
2024-03-15T18:02:18.150Z,18.10
2024-03-15T18:04:21.757Z,18.10
2024-03-15T18:06:23.804Z,18.10
2024-03-15T18:08:26.813Z,18.10
2024-03-15T18:10:29.854Z,18.00
2024-03-15T18:12:33.021Z,18.00
2024-03-15T18:14:36.013Z,17.90
2024-03-15T18:16:39.016Z,17.90
2024-03-15T18:18:42.010Z,17.90
2024-03-15T18:20:46.562Z,17.90
2024-03-15T18:22:49.541Z,17.80
2024-03-15T18:24:53.401Z,17.80
2024-03-15T18:26:55.507Z,17.80
2024-03-15T18:28:58.647Z,17.80
2024-03-15T18:31:05.216Z,17.80
2024-03-15T18:33:08.330Z,17.80
2024-03-15T18:35:11.274Z,17.70
2024-03-15T18:37:15.271Z,17.70
2024-03-15T18:39:18.329Z,17.70
2024-03-15T18:41:21.666Z,17.70
2024-03-15T18:43:24.783Z,17.70
2024-03-15T18:45:28.029Z,17.70
2024-03-15T18:47:31.464Z,17.70
2024-03-15T18:49:34.466Z,17.70
2024-03-15T18:51:37.472Z,17.70
2024-03-15T18:53:40.444Z,17.70
2024-03-15T18:55:42.471Z,17.60
2024-03-15T18:57:45.486Z,17.60
2024-03-15T18:59:56.855Z,17.60
2024-03-15T19:02:03.262Z,17.70
2024-03-15T19:04:06.285Z,17.70
2024-03-15T19:06:09.356Z,17.70
2024-03-15T19:08:12.299Z,17.60
2024-03-15T19:10:16.285Z,17.50
2024-03-15T19:12:20.627Z,17.50
2024-03-15T19:14:27.531Z,17.40
2024-03-15T19:16:34.099Z,17.20
2024-03-15T19:18:38.375Z,16.90
2024-03-15T19:20:41.420Z,16.80
2024-03-15T19:22:43.445Z,16.60
2024-03-15T19:24:48.323Z,16.60
2024-03-15T19:26:51.857Z,16.70
2024-03-15T19:28:58.905Z,16.80
2024-03-15T19:31:06.973Z,16.70
2024-03-15T19:33:09.751Z,16.70
2024-03-15T19:35:14.042Z,16.50
2024-03-15T19:37:17.378Z,16.50
2024-03-15T19:39:27.503Z,16.50
2024-03-15T19:41:31.640Z,16.60
2024-03-15T19:43:36.488Z,16.70
2024-03-15T19:45:39.767Z,16.70
2024-03-15T19:47:44.842Z,16.70
2024-03-15T19:49:47.888Z,16.70
2024-03-15T19:51:51.906Z,16.70
2024-03-15T19:53:55.763Z,16.70
2024-03-15T19:56:00.337Z,16.70
2024-03-15T19:58:03.438Z,16.70
2024-03-15T20:00:09.574Z,16.50
2024-03-15T20:02:12.544Z,16.30
2024-03-15T20:04:15.581Z,16.20
2024-03-15T20:06:18.950Z,16.00
2024-03-15T20:08:22.307Z,16.00
2024-03-15T20:10:25.905Z,16.00
2024-03-15T20:12:29.256Z,16.00
2024-03-15T20:14:32.410Z,15.90
2024-03-15T20:16:35.528Z,15.70
2024-03-15T20:18:38.569Z,15.60
2024-03-15T20:20:41.838Z,15.50
2024-03-15T20:22:44.971Z,15.40
2024-03-15T20:24:47.664Z,15.40
2024-03-15T20:26:50.790Z,15.20
2024-03-15T20:28:54.067Z,15.00
2024-03-15T20:30:59.004Z,15.00
2024-03-15T20:33:01.160Z,15.00
2024-03-15T20:35:04.429Z,14.90
2024-03-15T20:37:07.465Z,14.80
2024-03-15T20:39:14.457Z,14.80
2024-03-15T20:41:18.571Z,14.80
2024-03-15T20:43:20.664Z,14.80
2024-03-15T20:45:24.461Z,14.80
2024-03-15T20:47:27.669Z,14.90
2024-03-15T20:49:30.671Z,15.00
2024-03-15T20:51:33.791Z,15.20
2024-03-15T20:53:36.963Z,15.20
2024-03-15T20:55:42.325Z,15.30
2024-03-15T20:57:45.387Z,15.40
2024-03-15T20:59:49.011Z,15.40
2024-03-15T21:02:09.509Z,15.40
2024-03-15T21:04:13.318Z,15.50
2024-03-15T21:06:16.680Z,15.50
2024-03-15T21:08:19.927Z,15.50
2024-03-15T21:10:22.913Z,15.50
2024-03-15T21:12:30.056Z,15.60
2024-03-15T21:14:33.389Z,15.60
2024-03-15T21:16:36.333Z,15.70
2024-03-15T21:18:39.403Z,15.70
2024-03-15T21:20:41.565Z,15.60
2024-03-15T21:22:44.537Z,15.70
2024-03-15T21:24:49.255Z,15.70
2024-03-15T21:26:52.378Z,15.70
2024-03-15T21:28:56.088Z,15.70
2024-03-15T21:30:59.552Z,15.70
2024-03-15T21:33:02.727Z,15.60
2024-03-15T21:35:06.840Z,15.60
2024-03-15T21:37:10.902Z,15.60
2024-03-15T21:39:15.436Z,15.70
2024-03-15T21:41:19.214Z,15.70
2024-03-15T21:43:27.113Z,15.60
2024-03-15T21:45:30.346Z,15.70
2024-03-15T21:47:32.395Z,15.70
2024-03-15T21:49:36.009Z,15.60
2024-03-15T21:51:38.994Z,15.60
2024-03-15T21:53:43.555Z,15.60
2024-03-15T21:55:49.039Z,15.60
2024-03-15T21:57:52.123Z,15.70
2024-03-15T21:59:55.946Z,15.70
2024-03-15T22:02:00.546Z,15.60
2024-03-15T22:04:06.188Z,15.70
2024-03-15T22:06:10.488Z,15.70
2024-03-15T22:08:13.550Z,15.70
2024-03-15T22:10:17.217Z,15.70
2024-03-15T22:12:20.322Z,15.70
2024-03-15T22:14:22.526Z,15.70
2024-03-15T22:16:26.024Z,15.70
2024-03-15T22:18:29.139Z,15.60
2024-03-15T22:20:32.448Z,15.60
2024-03-15T22:22:34.702Z,15.60
2024-03-15T22:24:40.735Z,15.60
2024-03-15T22:26:45.270Z,15.50
2024-03-15T22:28:50.820Z,15.50
2024-03-15T22:30:52.889Z,15.50
2024-03-15T22:32:55.969Z,15.50
2024-03-15T22:34:59.068Z,15.50
2024-03-15T22:37:02.482Z,15.50
2024-03-15T22:39:05.844Z,15.50
2024-03-15T22:41:08.914Z,15.50
2024-03-15T22:43:12.248Z,15.50
2024-03-15T22:45:15.570Z,15.30
2024-03-15T22:47:19.266Z,15.30
2024-03-15T22:49:22.807Z,15.30
2024-03-15T22:51:25.918Z,15.20
2024-03-15T22:53:29.085Z,15.20
2024-03-15T22:55:32.277Z,15.20
2024-03-15T22:57:35.870Z,15.20
2024-03-15T22:59:39.509Z,15.20
2024-03-15T23:01:42.556Z,15.20
2024-03-15T23:03:47.398Z,15.10
2024-03-15T23:05:50.581Z,15.10
2024-03-15T23:07:57.000Z,15.00
2024-03-15T23:10:00.655Z,15.00
2024-03-15T23:12:04.616Z,15.00
2024-03-15T23:14:07.848Z,15.00
2024-03-15T23:16:10.923Z,15.00
2024-03-15T23:18:14.050Z,15.00
2024-03-15T23:20:18.532Z,15.00
2024-03-15T23:22:21.724Z,15.00
2024-03-15T23:24:24.342Z,15.00
2024-03-15T23:26:27.372Z,15.00
2024-03-15T23:28:30.424Z,15.00
2024-03-15T23:30:35.410Z,15.00
2024-03-15T23:32:39.550Z,14.90
2024-03-15T23:34:44.388Z,15.00
2024-03-15T23:36:47.519Z,14.90
2024-03-15T23:38:49.651Z,14.90
2024-03-15T23:40:52.817Z,14.80
2024-03-15T23:42:55.901Z,14.80
2024-03-15T23:44:58.007Z,14.80
2024-03-15T23:47:00.987Z,14.70
2024-03-15T23:49:05.471Z,14.60
2024-03-15T23:51:08.661Z,14.60
2024-03-15T23:53:11.706Z,14.50
2024-03-15T23:55:14.703Z,14.50
2024-03-15T23:57:17.688Z,14.40
2024-03-15T23:59:20.749Z,14.40
